createdAt,value
2018-08-13T00:00:16.179Z,2.10
2018-08-13T00:01:16.168Z,2.20
2018-08-13T00:02:16.150Z,2.40
2018-08-13T00:03:16.144Z,2.50
2018-08-13T00:04:16.119Z,2.20
2018-08-13T00:05:16.118Z,2.30
2018-08-13T00:06:16.088Z,2.50
2018-08-13T00:07:16.073Z,2.40
2018-08-13T00:08:16.059Z,2.50
2018-08-13T00:09:16.046Z,2.00
2018-08-13T00:10:16.030Z,1.90
2018-08-13T00:11:16.013Z,2.40
2018-08-13T00:12:16.000Z,2.30
2018-08-13T00:13:15.982Z,2.30
2018-08-13T00:14:15.972Z,2.20
2018-08-13T00:15:15.953Z,2.00
2018-08-13T00:16:15.939Z,2.00
2018-08-13T00:17:15.923Z,2.50
2018-08-13T00:18:15.909Z,2.20
2018-08-13T00:19:15.896Z,2.40
2018-08-13T00:20:15.883Z,2.00
2018-08-13T00:21:15.861Z,2.30
2018-08-13T00:22:15.853Z,2.60
2018-08-13T00:23:15.832Z,2.10
2018-08-13T00:24:15.819Z,2.20
2018-08-13T00:25:15.802Z,2.30
2018-08-13T00:26:15.794Z,2.30
2018-08-13T00:27:15.772Z,2.20
2018-08-13T00:28:15.760Z,2.30
2018-08-13T00:29:15.742Z,2.30
2018-08-13T00:30:15.727Z,2.50
2018-08-13T00:31:15.711Z,2.50
2018-08-13T00:32:15.699Z,2.40
2018-08-13T00:33:15.685Z,2.10
2018-08-13T00:34:15.666Z,2.30
2018-08-13T00:35:15.650Z,2.30
2018-08-13T00:36:15.639Z,2.40
2018-08-13T00:37:15.620Z,2.40
2018-08-13T00:38:15.610Z,2.50
2018-08-13T00:39:15.589Z,2.40
2018-08-13T00:40:15.574Z,2.30
2018-08-13T00:41:15.559Z,2.20
2018-08-13T00:42:15.543Z,2.30
2018-08-13T00:43:15.527Z,2.10
2018-08-13T00:44:15.519Z,2.30
2018-08-13T00:45:15.498Z,2.10
2018-08-13T00:46:15.482Z,2.10
2018-08-13T00:47:15.466Z,2.40
2018-08-13T00:48:15.458Z,2.10
2018-08-13T00:49:15.438Z,2.20
2018-08-13T00:50:15.423Z,2.40
2018-08-13T00:51:15.407Z,2.20
2018-08-13T00:52:15.395Z,2.10
2018-08-13T00:53:15.377Z,2.10
2018-08-13T00:54:15.370Z,2.30
2018-08-13T00:55:15.345Z,2.50
2018-08-13T00:56:15.331Z,2.10
2018-08-13T00:57:15.315Z,2.20
2018-08-13T00:58:15.300Z,2.30
2018-08-13T00:59:15.286Z,2.30
2018-08-13T01:00:15.269Z,2.20
2018-08-13T01:01:15.254Z,2.30
2018-08-13T01:02:15.241Z,2.10
2018-08-13T01:03:15.225Z,2.30
2018-08-13T01:04:15.209Z,2.20
2018-08-13T01:05:15.201Z,2.40
2018-08-13T01:06:15.180Z,2.20
2018-08-13T01:07:15.163Z,2.20
2018-08-13T01:08:15.149Z,2.20
2018-08-13T01:09:15.135Z,2.20
2018-08-13T01:10:15.118Z,2.20
2018-08-13T01:11:15.104Z,2.20
2018-08-13T01:12:15.092Z,2.00
2018-08-13T01:13:15.072Z,2.50
2018-08-13T01:14:15.060Z,2.30
2018-08-13T01:15:15.045Z,2.10
2018-08-13T01:16:15.026Z,2.20
2018-08-13T01:17:15.012Z,2.10
2018-08-13T01:18:14.996Z,2.30
2018-08-13T01:19:14.989Z,2.10
2018-08-13T01:20:14.965Z,2.50
2018-08-13T01:21:14.951Z,2.00
2018-08-13T01:22:14.935Z,2.00
2018-08-13T01:23:14.920Z,2.30
2018-08-13T01:24:14.906Z,2.10
2018-08-13T01:25:14.890Z,2.30
2018-08-13T01:26:14.876Z,2.60
2018-08-13T01:27:14.860Z,2.20
2018-08-13T01:28:14.845Z,2.50
2018-08-13T01:29:14.832Z,2.20
2018-08-13T01:30:14.815Z,2.20
2018-08-13T01:31:14.800Z,2.20
2018-08-13T01:32:14.782Z,2.00
2018-08-13T01:33:14.768Z,2.00
2018-08-13T01:34:14.754Z,2.30
2018-08-13T01:35:14.737Z,2.30
2018-08-13T01:36:14.728Z,2.30
2018-08-13T01:37:14.711Z,2.30
2018-08-13T01:38:14.693Z,2.30
2018-08-13T01:39:14.679Z,1.90
2018-08-13T01:40:14.663Z,2.10
2018-08-13T01:41:14.651Z,2.30
2018-08-13T01:42:14.634Z,2.40
2018-08-13T01:43:14.616Z,2.00
2018-08-13T01:44:14.603Z,2.10
2018-08-13T01:45:14.586Z,2.50
2018-08-13T01:46:14.571Z,1.90
2018-08-13T01:47:14.562Z,2.50
2018-08-13T01:48:14.546Z,2.30
2018-08-13T01:49:14.524Z,2.20
2018-08-13T01:50:14.512Z,2.50
2018-08-13T01:51:14.495Z,2.20
2018-08-13T01:52:14.488Z,2.10
2018-08-13T01:53:14.478Z,2.00
2018-08-13T01:54:14.451Z,2.40
2018-08-13T01:55:14.435Z,2.90
2018-08-13T01:56:14.420Z,2.30
2018-08-13T01:57:14.403Z,2.00
2018-08-13T01:58:14.387Z,2.30
2018-08-13T01:59:14.378Z,2.40
2018-08-13T02:00:14.358Z,2.20
2018-08-13T02:01:14.347Z,2.30
2018-08-13T02:02:14.328Z,2.10
2018-08-13T02:03:14.313Z,2.20
2018-08-13T02:04:14.297Z,2.30
2018-08-13T02:05:14.280Z,2.40
2018-08-13T02:06:14.267Z,2.30
2018-08-13T02:07:14.249Z,2.10
2018-08-13T02:08:14.236Z,2.10
2018-08-13T02:09:14.221Z,2.10
2018-08-13T02:10:14.205Z,2.10
2018-08-13T02:11:14.189Z,2.30
2018-08-13T02:12:14.173Z,2.60
2018-08-13T02:13:14.160Z,2.50
2018-08-13T02:14:14.144Z,1.90
2018-08-13T02:15:14.128Z,2.30
2018-08-13T02:16:14.114Z,1.90
2018-08-13T02:17:14.099Z,2.40
2018-08-13T02:18:14.085Z,2.00
2018-08-13T02:19:14.070Z,2.10
2018-08-13T02:20:14.053Z,2.00
2018-08-13T02:21:14.042Z,2.20
2018-08-13T02:22:14.024Z,1.90
2018-08-13T02:23:14.008Z,2.20
2018-08-13T02:24:13.992Z,2.00
2018-08-13T02:25:13.977Z,2.30
2018-08-13T02:26:13.966Z,2.10
2018-08-13T02:27:13.947Z,2.20
2018-08-13T02:28:13.931Z,2.40
2018-08-13T02:29:13.918Z,2.00
2018-08-13T02:30:13.901Z,2.40
2018-08-13T02:31:13.885Z,2.00
2018-08-13T02:32:13.870Z,2.00
2018-08-13T02:33:13.857Z,1.60
2018-08-13T02:34:13.842Z,1.90
2018-08-13T02:35:13.825Z,2.30
2018-08-13T02:36:13.811Z,1.90
2018-08-13T02:37:13.796Z,2.10
2018-08-13T02:38:13.783Z,1.90
2018-08-13T02:39:13.880Z,2.30
2018-08-13T02:40:13.748Z,1.70
2018-08-13T02:41:13.734Z,1.90
2018-08-13T02:42:13.723Z,1.60
2018-08-13T02:43:13.704Z,1.80
2018-08-13T02:44:13.691Z,1.80
2018-08-13T02:45:13.675Z,1.70
2018-08-13T02:46:13.660Z,2.00
2018-08-13T02:47:13.643Z,2.10
2018-08-13T02:48:13.627Z,2.10
2018-08-13T02:49:13.614Z,2.10
2018-08-13T02:50:13.599Z,2.00
2018-08-13T02:51:13.581Z,1.80
2018-08-13T02:52:13.572Z,2.60
2018-08-13T02:53:13.552Z,1.90
2018-08-13T02:54:13.537Z,1.80
2018-08-13T02:55:13.521Z,1.90
2018-08-13T02:56:13.508Z,1.90
2018-08-13T02:57:13.491Z,1.80
2018-08-13T02:58:13.504Z,1.80
2018-08-13T02:59:13.462Z,2.00
2018-08-13T03:00:13.446Z,1.90
2018-08-13T03:01:13.430Z,2.10
2018-08-13T03:02:13.416Z,2.20
2018-08-13T03:03:13.407Z,1.80
2018-08-13T03:04:13.389Z,1.90
2018-08-13T03:05:13.369Z,2.10
2018-08-13T03:06:13.355Z,2.10
2018-08-13T03:07:13.342Z,1.90
2018-08-13T03:08:13.324Z,1.80
2018-08-13T03:09:13.311Z,2.00
2018-08-13T03:10:13.294Z,2.00
2018-08-13T03:11:13.279Z,1.90
2018-08-13T03:12:13.268Z,2.00
2018-08-13T03:13:13.255Z,1.80
2018-08-13T03:14:13.238Z,2.20
2018-08-13T03:15:13.224Z,2.20
2018-08-13T03:16:13.203Z,1.70
2018-08-13T03:17:13.189Z,2.10
2018-08-13T03:18:13.172Z,2.00
2018-08-13T03:19:13.158Z,2.10
2018-08-13T03:20:13.143Z,2.40
2018-08-13T03:21:13.126Z,1.90
2018-08-13T03:22:13.113Z,1.70
2018-08-13T03:23:13.096Z,1.70
2018-08-13T03:24:13.083Z,2.00
2018-08-13T03:25:13.066Z,1.90
2018-08-13T03:26:13.053Z,2.20
2018-08-13T03:27:13.035Z,1.90
2018-08-13T03:28:13.019Z,1.90
2018-08-13T03:29:13.006Z,2.10
2018-08-13T03:30:13.001Z,1.60
2018-08-13T03:31:12.973Z,2.20
2018-08-13T03:32:12.960Z,2.00
2018-08-13T03:33:12.944Z,2.10
2018-08-13T03:34:12.932Z,2.10
2018-08-13T03:35:12.912Z,1.90
2018-08-13T03:36:12.898Z,1.80
2018-08-13T03:37:12.882Z,2.10
2018-08-13T03:38:12.866Z,2.10
2018-08-13T03:39:12.854Z,1.90
2018-08-13T03:40:12.838Z,2.40
2018-08-13T03:41:12.822Z,2.10
2018-08-13T03:42:12.806Z,2.50
2018-08-13T03:43:12.794Z,2.30
2018-08-13T03:44:12.777Z,2.40
2018-08-13T03:45:12.761Z,2.00
2018-08-13T03:46:12.748Z,2.10
2018-08-13T03:47:12.729Z,2.10
2018-08-13T03:48:12.715Z,2.20
2018-08-13T03:49:12.703Z,2.10
2018-08-13T03:50:12.685Z,2.00
2018-08-13T03:51:12.668Z,2.30
2018-08-13T03:52:12.653Z,2.00
2018-08-13T03:53:12.640Z,2.00
2018-08-13T03:54:12.623Z,2.20
2018-08-13T03:55:12.608Z,1.70
2018-08-13T03:56:12.598Z,2.30
2018-08-13T03:57:12.579Z,2.10
2018-08-13T03:58:12.565Z,2.40
2018-08-13T03:59:12.552Z,1.90
2018-08-13T04:00:12.531Z,2.20
2018-08-13T04:01:12.517Z,1.90
2018-08-13T04:02:12.502Z,1.90
2018-08-13T04:03:12.485Z,2.60
2018-08-13T04:04:12.471Z,2.20
2018-08-13T04:05:12.455Z,2.10
2018-08-13T04:06:12.440Z,1.90
2018-08-13T04:07:12.425Z,1.80
2018-08-13T04:08:12.410Z,2.30
2018-08-13T04:09:12.395Z,2.30
2018-08-13T04:10:12.383Z,2.00
2018-08-13T04:11:12.373Z,2.10
2018-08-13T04:12:12.360Z,2.20
2018-08-13T04:13:12.336Z,2.20
2018-08-13T04:14:12.320Z,1.90
2018-08-13T04:15:12.312Z,1.90
2018-08-13T04:16:12.290Z,2.40
2018-08-13T04:17:12.275Z,1.90
2018-08-13T04:18:12.262Z,1.90
2018-08-13T04:19:12.244Z,2.00
2018-08-13T04:20:12.233Z,2.40
2018-08-13T04:21:12.214Z,2.00
2018-08-13T04:22:12.198Z,2.40
2018-08-13T04:23:12.186Z,2.00
2018-08-13T04:24:12.169Z,2.40
2018-08-13T04:25:12.160Z,2.20
2018-08-13T04:26:12.139Z,1.90
2018-08-13T04:27:12.122Z,2.00
2018-08-13T04:28:12.106Z,1.90
2018-08-13T04:29:12.093Z,2.20
2018-08-13T04:30:12.076Z,2.20
2018-08-13T04:31:12.061Z,2.00
2018-08-13T04:32:12.045Z,2.20
2018-08-13T04:33:12.031Z,2.50
2018-08-13T04:34:12.017Z,2.10
2018-08-13T04:35:12.004Z,2.00
2018-08-13T04:36:11.985Z,2.20
2018-08-13T04:37:11.975Z,2.30
2018-08-13T04:38:11.956Z,2.00
2018-08-13T04:39:11.940Z,2.30
2018-08-13T04:40:11.928Z,1.90
2018-08-13T04:41:11.907Z,2.30
2018-08-13T04:42:11.893Z,2.40
2018-08-13T04:43:11.876Z,2.20
2018-08-13T04:44:11.862Z,2.00
2018-08-13T04:45:11.849Z,2.30
2018-08-13T04:46:11.834Z,2.20
2018-08-13T04:47:11.817Z,1.90
2018-08-13T04:48:11.803Z,1.90
2018-08-13T04:49:11.786Z,2.00
2018-08-13T04:50:11.772Z,2.30
2018-08-13T04:51:11.754Z,2.30
2018-08-13T04:52:11.798Z,2.00
2018-08-13T04:53:11.732Z,2.00
2018-08-13T04:54:11.713Z,2.00
2018-08-13T04:55:11.696Z,2.10
2018-08-13T04:56:11.681Z,1.90
2018-08-13T04:57:11.667Z,2.20
2018-08-13T04:58:11.659Z,2.10
2018-08-13T04:59:11.636Z,2.10
2018-08-13T05:00:11.620Z,2.20
2018-08-13T05:01:11.606Z,2.10
2018-08-13T05:02:11.594Z,2.30
2018-08-13T05:03:11.576Z,2.10
2018-08-13T05:04:11.561Z,2.40
2018-08-13T05:05:11.546Z,2.20
2018-08-13T05:06:11.531Z,2.00
2018-08-13T05:07:11.524Z,2.10
2018-08-13T05:08:11.499Z,2.20
2018-08-13T05:09:11.483Z,1.80
2018-08-13T05:10:11.478Z,2.10
2018-08-13T05:11:11.454Z,2.30
2018-08-13T05:12:11.440Z,3.40
2018-08-13T05:13:11.428Z,2.10
2018-08-13T05:14:11.410Z,2.40
2018-08-13T05:15:11.400Z,2.30
2018-08-13T05:16:11.378Z,2.30
2018-08-13T05:17:11.366Z,2.40
2018-08-13T05:18:11.352Z,2.20
2018-08-13T05:19:11.336Z,1.90
2018-08-13T05:20:11.321Z,2.20
2018-08-13T05:21:11.317Z,2.10
2018-08-13T05:22:11.293Z,2.10
2018-08-13T05:23:11.275Z,2.10
2018-08-13T05:24:11.258Z,2.00
2018-08-13T05:25:11.251Z,2.10
2018-08-13T05:26:11.231Z,2.30
2018-08-13T05:27:11.214Z,2.10
2018-08-13T05:28:11.197Z,2.20
2018-08-13T05:29:11.183Z,2.40
2018-08-13T05:30:11.213Z,2.50
2018-08-13T05:31:11.152Z,2.50
2018-08-13T05:32:11.140Z,2.90
2018-08-13T05:33:11.122Z,2.80
2018-08-13T05:34:11.106Z,2.60
2018-08-13T05:35:11.089Z,2.50
2018-08-13T05:36:11.076Z,2.40
2018-08-13T05:37:11.060Z,2.30
2018-08-13T05:38:11.053Z,2.10
2018-08-13T05:39:11.031Z,1.80
2018-08-13T05:40:11.015Z,2.20
2018-08-13T05:41:11.000Z,2.20
2018-08-13T05:42:10.986Z,2.00
2018-08-13T05:43:10.976Z,2.20
2018-08-13T05:44:10.957Z,2.20
2018-08-13T05:45:10.954Z,2.50
2018-08-13T05:46:10.926Z,2.20
2018-08-13T05:47:10.911Z,2.00
2018-08-13T05:48:10.893Z,2.00
2018-08-13T05:49:10.880Z,1.90
2018-08-13T05:50:10.869Z,1.90
2018-08-13T05:51:10.858Z,2.50
2018-08-13T05:52:10.837Z,2.20
2018-08-13T05:53:10.826Z,2.50
2018-08-13T05:54:10.808Z,2.10
2018-08-13T05:55:10.790Z,2.10
2018-08-13T05:56:10.773Z,2.50
2018-08-13T05:57:10.759Z,2.10
2018-08-13T05:58:10.747Z,2.30
2018-08-13T05:59:10.740Z,2.40
2018-08-13T06:00:10.712Z,2.30
2018-08-13T06:01:10.701Z,2.20
2018-08-13T06:02:10.685Z,2.50
2018-08-13T06:03:10.725Z,2.10
2018-08-13T06:04:10.652Z,2.40
2018-08-13T06:05:10.642Z,2.40
2018-08-13T06:06:10.622Z,2.60
2018-08-13T06:07:10.606Z,2.30
2018-08-13T06:08:10.591Z,2.40
2018-08-13T06:09:10.579Z,2.40
2018-08-13T06:10:10.565Z,2.40
2018-08-13T06:11:10.573Z,2.70
2018-08-13T06:12:10.531Z,2.20
2018-08-13T06:13:10.518Z,2.30
2018-08-13T06:14:10.500Z,2.40
2018-08-13T06:15:10.484Z,2.60
2018-08-13T06:16:10.471Z,2.70
2018-08-13T06:17:10.455Z,2.20
2018-08-13T06:18:10.491Z,2.20
2018-08-13T06:19:10.423Z,2.60
2018-08-13T06:20:10.410Z,2.70
2018-08-13T06:21:10.394Z,3.00
2018-08-13T06:22:10.379Z,2.90
2018-08-13T06:23:10.362Z,2.70
2018-08-13T06:24:10.386Z,2.40
2018-08-13T06:25:10.337Z,2.70
2018-08-13T06:26:10.322Z,3.10
2018-08-13T06:27:10.302Z,3.20
2018-08-13T06:28:10.325Z,2.80
2018-08-13T06:29:10.272Z,3.10
2018-08-13T06:30:10.315Z,3.40
2018-08-13T06:31:10.242Z,3.30
2018-08-13T06:32:10.228Z,3.10
2018-08-13T06:33:10.212Z,2.90
2018-08-13T06:34:10.199Z,3.00
2018-08-13T06:35:10.181Z,3.40
2018-08-13T06:36:10.166Z,3.20
2018-08-13T06:37:10.157Z,3.60
2018-08-13T06:38:10.136Z,3.20
2018-08-13T06:39:10.120Z,3.10
2018-08-13T06:40:10.104Z,3.30
2018-08-13T06:41:10.090Z,3.30
2018-08-13T06:42:10.073Z,2.80
2018-08-13T06:43:10.058Z,3.20
2018-08-13T06:44:10.050Z,3.50
2018-08-13T06:45:10.029Z,3.20
2018-08-13T06:46:10.014Z,3.50
2018-08-13T06:47:10.035Z,3.70
2018-08-13T06:48:09.985Z,3.60
2018-08-13T06:49:09.975Z,3.60
2018-08-13T06:50:09.956Z,4.30
2018-08-13T06:51:09.937Z,3.40
2018-08-13T06:52:09.921Z,3.80
2018-08-13T06:53:09.905Z,4.20
2018-08-13T06:54:09.889Z,4.00
2018-08-13T06:55:09.878Z,4.00
2018-08-13T06:56:09.859Z,3.90
2018-08-13T06:57:09.846Z,4.40
2018-08-13T06:58:09.843Z,4.40
2018-08-13T06:59:09.814Z,4.20
2018-08-13T07:00:09.801Z,4.20
2018-08-13T07:01:09.783Z,4.00
2018-08-13T07:02:09.767Z,4.10
2018-08-13T07:03:09.751Z,4.40
2018-08-13T07:04:09.745Z,4.30
2018-08-13T07:05:09.724Z,3.90
2018-08-13T07:06:09.717Z,3.90
2018-08-13T07:07:09.688Z,4.40
2018-08-13T07:08:09.674Z,3.70
2018-08-13T07:09:09.659Z,4.20
2018-08-13T07:10:09.652Z,4.10
2018-08-13T07:11:09.629Z,4.00
2018-08-13T07:12:09.613Z,4.00
2018-08-13T07:13:09.599Z,4.20
2018-08-13T07:14:09.582Z,3.80
2018-08-13T07:15:09.566Z,4.00
2018-08-13T07:16:09.549Z,4.00
2018-08-13T07:17:09.546Z,4.20
2018-08-13T07:18:09.528Z,4.30
2018-08-13T07:19:09.501Z,4.20
2018-08-13T07:20:09.490Z,4.20
2018-08-13T07:21:09.472Z,4.00
2018-08-13T07:22:09.531Z,4.40
2018-08-13T07:23:09.445Z,4.20
2018-08-13T07:24:09.425Z,4.20
2018-08-13T07:25:09.418Z,3.80
2018-08-13T07:26:09.399Z,4.30
2018-08-13T07:27:09.383Z,4.50
2018-08-13T07:28:09.428Z,4.10
2018-08-13T07:29:09.354Z,3.90
2018-08-13T07:30:09.338Z,4.20
2018-08-13T07:31:09.328Z,4.00
2018-08-13T07:32:09.309Z,4.00
2018-08-13T07:33:09.294Z,3.90
2018-08-13T07:34:09.277Z,4.20
2018-08-13T07:35:09.257Z,4.10
2018-08-13T07:36:09.243Z,4.50
2018-08-13T07:37:09.235Z,3.90
2018-08-13T07:38:09.213Z,4.40
2018-08-13T07:39:09.355Z,4.00
2018-08-13T07:40:09.181Z,3.80
2018-08-13T07:41:09.170Z,4.10
2018-08-13T07:42:09.151Z,3.80
2018-08-13T07:43:09.136Z,4.20
2018-08-13T07:44:09.119Z,4.10
2018-08-13T07:45:09.104Z,3.50
2018-08-13T07:46:09.092Z,4.20
2018-08-13T07:47:09.074Z,4.00
2018-08-13T07:48:09.060Z,3.50
2018-08-13T07:49:09.042Z,3.90
2018-08-13T07:50:09.032Z,4.50
2018-08-13T07:51:09.012Z,4.20
2018-08-13T07:52:09.001Z,4.10
2018-08-13T07:53:08.983Z,4.40
2018-08-13T07:54:08.969Z,4.10
2018-08-13T07:55:08.954Z,4.30
2018-08-13T07:56:08.939Z,4.20
2018-08-13T07:57:08.924Z,4.20
2018-08-13T07:58:08.910Z,4.40
2018-08-13T07:59:08.893Z,4.20
2018-08-13T08:00:08.958Z,4.20
2018-08-13T08:01:08.862Z,4.20
2018-08-13T08:02:08.849Z,3.40
2018-08-13T08:03:08.831Z,4.30
2018-08-13T08:04:08.823Z,4.20
2018-08-13T08:05:08.806Z,4.20
2018-08-13T08:06:08.797Z,4.10
2018-08-13T08:07:08.781Z,4.10
2018-08-13T08:08:08.757Z,4.00
2018-08-13T08:09:08.756Z,3.80
2018-08-13T08:10:08.732Z,4.30
2018-08-13T08:11:08.715Z,4.60
2018-08-13T08:12:08.703Z,4.30
2018-08-13T08:13:08.689Z,4.50
2018-08-13T08:14:08.674Z,4.10
2018-08-13T08:15:08.654Z,4.00
2018-08-13T08:16:08.643Z,4.30
2018-08-13T08:17:08.631Z,4.20
2018-08-13T08:18:08.680Z,3.70
2018-08-13T08:19:08.598Z,4.10
2018-08-13T08:20:08.580Z,4.10
2018-08-13T08:21:08.566Z,3.70
2018-08-13T08:22:08.553Z,3.80
2018-08-13T08:23:08.545Z,3.60
2018-08-13T08:24:08.524Z,3.40
2018-08-13T08:25:08.509Z,3.50
2018-08-13T08:26:08.500Z,3.70
2018-08-13T08:27:08.478Z,3.10
2018-08-13T08:28:08.467Z,2.90
2018-08-13T08:29:08.495Z,3.60
2018-08-13T08:30:08.437Z,3.30
2018-08-13T08:31:08.421Z,3.20
2018-08-13T08:32:08.423Z,3.30
2018-08-13T08:33:08.392Z,3.70
2018-08-13T08:34:08.376Z,3.80
2018-08-13T08:35:08.360Z,3.50
2018-08-13T08:36:08.349Z,3.90
2018-08-13T08:37:08.337Z,3.60
2018-08-13T08:38:08.319Z,3.70
2018-08-13T08:39:08.302Z,3.50
2018-08-13T08:40:08.287Z,3.60
2018-08-13T08:41:08.272Z,3.40
2018-08-13T08:42:08.258Z,3.40
2018-08-13T08:43:08.245Z,3.60
2018-08-13T08:44:08.233Z,3.40
2018-08-13T08:45:08.217Z,3.60
2018-08-13T08:46:08.201Z,3.50
2018-08-13T08:47:08.185Z,3.30
2018-08-13T08:48:08.176Z,3.50
2018-08-13T08:49:08.153Z,3.60
2018-08-13T08:50:08.138Z,3.00
2018-08-13T08:51:08.124Z,3.30
2018-08-13T08:52:08.117Z,3.20
2018-08-13T08:53:08.097Z,3.50
2018-08-13T08:54:08.088Z,3.30
2018-08-13T08:55:08.064Z,3.30
2018-08-13T08:56:08.050Z,3.30
2018-08-13T08:57:08.035Z,3.10
2018-08-13T08:58:08.021Z,3.10
2018-08-13T08:59:08.005Z,3.20
2018-08-13T09:00:07.990Z,3.40
2018-08-13T09:01:07.976Z,3.50
2018-08-13T09:02:07.963Z,3.40
2018-08-13T09:03:07.960Z,3.20
2018-08-13T09:04:07.933Z,3.10
2018-08-13T09:05:07.915Z,3.40
2018-08-13T09:06:07.910Z,3.40
2018-08-13T09:07:07.889Z,3.00
2018-08-13T09:08:07.872Z,3.40
2018-08-13T09:09:07.855Z,3.50
2018-08-13T09:10:07.846Z,3.00
2018-08-13T09:11:07.828Z,3.10
2018-08-13T09:12:07.823Z,3.20
2018-08-13T09:13:07.799Z,3.10
2018-08-13T09:14:07.802Z,3.10
2018-08-13T09:15:07.766Z,3.40
2018-08-13T09:16:07.751Z,3.50
2018-08-13T09:17:07.737Z,3.40
2018-08-13T09:18:07.724Z,3.10
2018-08-13T09:19:07.732Z,3.20
2018-08-13T09:20:07.693Z,3.40
2018-08-13T09:21:07.679Z,3.40
2018-08-13T09:22:07.662Z,3.20
2018-08-13T09:23:07.647Z,3.70
2018-08-13T09:24:07.639Z,3.00
2018-08-13T09:25:07.617Z,3.30
2018-08-13T09:26:07.605Z,3.40
2018-08-13T09:27:07.593Z,3.30
2018-08-13T09:28:07.581Z,3.00
2018-08-13T09:29:07.559Z,3.20
2018-08-13T09:30:07.544Z,3.30
2018-08-13T09:31:07.528Z,3.00
2018-08-13T09:32:07.538Z,2.90
2018-08-13T09:33:07.515Z,2.80
2018-08-13T09:34:07.486Z,3.40
2018-08-13T09:35:07.471Z,3.10
2018-08-13T09:36:07.464Z,2.60
2018-08-13T09:37:07.449Z,2.90
2018-08-13T09:38:07.429Z,2.50
2018-08-13T09:39:07.419Z,2.70
2018-08-13T09:40:07.404Z,2.80
2018-08-13T09:41:07.391Z,3.20
2018-08-13T09:42:07.381Z,3.20
2018-08-13T09:43:07.354Z,3.00
2018-08-13T09:44:07.337Z,2.70
2018-08-13T09:45:07.326Z,2.90
2018-08-13T09:46:07.310Z,2.80
2018-08-13T09:47:07.293Z,2.80
2018-08-13T09:48:07.343Z,2.80
2018-08-13T09:49:07.265Z,3.00
2018-08-13T09:50:07.252Z,3.00
2018-08-13T09:51:07.234Z,2.90
2018-08-13T09:52:07.221Z,2.90
2018-08-13T09:53:07.205Z,2.70
2018-08-13T09:54:07.191Z,2.60
2018-08-13T09:55:07.182Z,3.30
2018-08-13T09:56:07.166Z,2.80
2018-08-13T09:57:07.154Z,2.90
2018-08-13T09:58:07.140Z,2.80
2018-08-13T09:59:07.115Z,2.70
2018-08-13T10:00:07.156Z,2.70
2018-08-13T10:01:07.091Z,2.90
2018-08-13T10:02:07.078Z,3.20
2018-08-13T10:03:07.054Z,3.00
2018-08-13T10:04:07.040Z,3.70
2018-08-13T10:05:07.030Z,3.10
2018-08-13T10:06:07.015Z,3.40
2018-08-13T10:07:07.000Z,3.60
2018-08-13T10:08:06.986Z,3.30
2018-08-13T10:09:06.984Z,3.30
2018-08-13T10:10:06.956Z,3.40
2018-08-13T10:11:06.945Z,3.10
2018-08-13T10:12:06.923Z,2.60
2018-08-13T10:13:06.910Z,2.80
2018-08-13T10:14:06.899Z,3.40
2018-08-13T10:15:06.881Z,3.20
2018-08-13T10:16:06.879Z,3.30
2018-08-13T10:17:06.862Z,2.70
2018-08-13T10:18:06.840Z,2.80
2018-08-13T10:19:06.831Z,2.70
2018-08-13T10:20:06.816Z,2.90
2018-08-13T10:21:06.798Z,2.40
2018-08-13T10:22:06.782Z,2.40
2018-08-13T10:23:06.771Z,2.30
2018-08-13T10:24:06.757Z,2.40
2018-08-13T10:25:06.740Z,1.90
2018-08-13T10:26:06.727Z,1.90
2018-08-13T10:27:06.720Z,2.20
2018-08-13T10:28:06.715Z,1.60
2018-08-13T10:29:06.685Z,1.50
2018-08-13T10:30:06.676Z,1.70
2018-08-13T10:31:06.653Z,1.60
2018-08-13T10:32:06.645Z,1.80
2018-08-13T10:33:06.639Z,1.80
2018-08-13T10:34:06.615Z,1.60
2018-08-13T10:35:06.607Z,1.60
2018-08-13T10:36:06.586Z,1.70
2018-08-13T10:37:06.572Z,1.60
2018-08-13T10:38:06.558Z,1.80
2018-08-13T10:39:06.554Z,1.60
2018-08-13T10:40:06.530Z,1.50
2018-08-13T10:41:06.521Z,1.40
2018-08-13T10:42:06.512Z,1.80
2018-08-13T10:43:06.491Z,1.40
2018-08-13T10:44:06.477Z,1.50
2018-08-13T10:45:06.465Z,1.60
2018-08-13T10:46:06.450Z,1.80
2018-08-13T10:47:06.436Z,1.50
2018-08-13T10:48:06.434Z,1.50
2018-08-13T10:49:06.423Z,1.60
2018-08-13T10:50:06.399Z,1.60
2018-08-13T10:51:06.382Z,1.80
2018-08-13T10:52:06.372Z,1.50
2018-08-13T10:53:06.358Z,1.70
2018-08-13T10:54:06.343Z,1.60
2018-08-13T10:55:06.332Z,1.80
2018-08-13T10:56:06.333Z,1.40
2018-08-13T10:57:06.305Z,1.40
2018-08-13T10:58:06.327Z,1.60
2018-08-13T10:59:06.278Z,1.40
2018-08-13T11:00:06.266Z,1.50
2018-08-13T11:01:06.253Z,1.50
2018-08-13T11:02:06.240Z,1.40
2018-08-13T11:03:06.233Z,1.70
2018-08-13T11:04:06.213Z,1.60
2018-08-13T11:05:06.196Z,1.60
2018-08-13T11:06:06.187Z,1.40
2018-08-13T11:07:06.169Z,1.50
2018-08-13T11:08:06.167Z,1.50
2018-08-13T11:09:06.143Z,1.50
2018-08-13T11:10:06.135Z,1.30
2018-08-13T11:11:06.116Z,1.50
2018-08-13T11:12:06.100Z,1.70
2018-08-13T11:13:06.095Z,1.40
2018-08-13T11:14:06.079Z,1.40
2018-08-13T11:15:06.060Z,1.50
2018-08-13T11:16:06.049Z,1.80
2018-08-13T11:17:06.034Z,1.60
2018-08-13T11:18:06.027Z,1.80
2018-08-13T11:19:06.011Z,1.30
2018-08-13T11:20:06.004Z,1.30
2018-08-13T11:21:05.984Z,1.40
2018-08-13T11:22:05.967Z,1.60
2018-08-13T11:23:05.955Z,1.60
2018-08-13T11:24:05.942Z,1.40
2018-08-13T11:25:05.934Z,1.80
2018-08-13T11:26:05.918Z,1.60
2018-08-13T11:27:05.903Z,1.50
2018-08-13T11:28:05.896Z,1.70
2018-08-13T11:29:05.879Z,1.60
2018-08-13T11:30:05.879Z,1.60
2018-08-13T11:31:05.923Z,1.90
2018-08-13T11:32:05.844Z,1.80
2018-08-13T11:33:05.825Z,2.00
2018-08-13T11:34:05.823Z,1.90
2018-08-13T11:35:05.799Z,2.00
2018-08-13T11:36:05.803Z,1.60
2018-08-13T11:37:05.775Z,1.60
2018-08-13T11:38:05.762Z,1.80
2018-08-13T11:39:05.747Z,1.90
2018-08-13T11:40:05.735Z,1.70
2018-08-13T11:41:05.721Z,1.70
2018-08-13T11:42:05.708Z,1.60
2018-08-13T11:43:05.693Z,1.60
2018-08-13T11:44:05.688Z,1.80
2018-08-13T11:45:05.669Z,2.00
2018-08-13T11:46:05.666Z,1.70
2018-08-13T11:47:05.641Z,2.20
2018-08-13T11:48:05.628Z,1.70
2018-08-13T11:49:05.617Z,1.90
2018-08-13T11:50:05.602Z,1.90
2018-08-13T11:51:05.606Z,1.90
2018-08-13T11:52:05.587Z,1.70
2018-08-13T11:53:05.565Z,2.00
2018-08-13T11:54:05.551Z,1.80
2018-08-13T11:55:05.546Z,2.10
2018-08-13T11:56:05.524Z,1.80
2018-08-13T11:57:05.509Z,1.90
2018-08-13T11:58:05.498Z,1.90
2018-08-13T11:59:05.484Z,1.60
2018-08-13T12:00:05.472Z,1.70
2018-08-13T12:01:05.490Z,1.70
2018-08-13T12:02:05.517Z,1.80
2018-08-13T12:03:05.435Z,1.70
2018-08-13T12:04:05.427Z,1.90
2018-08-13T12:05:05.405Z,1.80
2018-08-13T12:06:05.395Z,1.50
2018-08-13T12:07:05.381Z,1.70
2018-08-13T12:08:05.367Z,1.70
2018-08-13T12:09:05.354Z,1.30
2018-08-13T12:10:05.343Z,1.60
2018-08-13T12:11:05.330Z,1.50
2018-08-13T12:12:05.314Z,1.60
2018-08-13T12:13:05.303Z,1.80
2018-08-13T12:14:05.389Z,1.90
2018-08-13T12:15:05.280Z,1.80
2018-08-13T12:16:05.262Z,1.70
2018-08-13T12:17:05.255Z,2.00
2018-08-13T12:18:05.236Z,1.60
2018-08-13T12:19:05.224Z,2.00
2018-08-13T12:20:05.214Z,1.80
2018-08-13T12:21:05.199Z,1.70
2018-08-13T12:22:05.200Z,2.00
2018-08-13T12:23:05.171Z,2.20
2018-08-13T12:24:05.160Z,2.00
2018-08-13T12:25:05.150Z,2.00
2018-08-13T12:26:05.133Z,1.80
2018-08-13T12:27:05.130Z,1.90
2018-08-13T12:28:05.109Z,2.10
2018-08-13T12:29:05.102Z,1.80
2018-08-13T12:30:05.082Z,1.90
2018-08-13T12:31:05.074Z,1.70
2018-08-13T12:32:05.057Z,1.80
2018-08-13T12:33:05.043Z,2.10
2018-08-13T12:34:05.028Z,1.50
2018-08-13T12:35:05.021Z,1.80
2018-08-13T12:36:05.006Z,1.70
2018-08-13T12:37:04.995Z,1.60
2018-08-13T12:38:04.980Z,1.70
2018-08-13T12:39:04.965Z,1.60
2018-08-13T12:40:04.949Z,1.60
2018-08-13T12:41:04.988Z,1.40
2018-08-13T12:42:04.924Z,1.80
2018-08-13T12:43:04.915Z,1.90
2018-08-13T12:44:04.899Z,2.40
2018-08-13T12:45:04.888Z,2.20
2018-08-13T12:46:04.873Z,1.60
2018-08-13T12:47:04.859Z,1.70
2018-08-13T12:48:04.845Z,1.90
2018-08-13T12:49:04.831Z,1.70
2018-08-13T12:50:04.817Z,1.80
2018-08-13T12:51:04.868Z,1.80
2018-08-13T12:52:04.790Z,1.90
2018-08-13T12:53:04.782Z,1.70
2018-08-13T12:54:04.767Z,1.70
2018-08-13T12:55:04.758Z,2.10
2018-08-13T12:56:04.738Z,2.50
2018-08-13T12:57:04.728Z,2.10
2018-08-13T12:58:04.722Z,2.10
2018-08-13T12:59:04.699Z,2.50
2018-08-13T13:00:04.686Z,2.40
2018-08-13T13:01:04.668Z,2.00
2018-08-13T13:02:04.662Z,2.20
2018-08-13T13:03:04.643Z,2.10
2018-08-13T13:04:04.629Z,1.80
2018-08-13T13:05:04.617Z,1.70
2018-08-13T13:06:04.602Z,1.80
2018-08-13T13:07:04.589Z,2.10
2018-08-13T13:08:04.576Z,2.30
2018-08-13T13:09:04.572Z,1.90
2018-08-13T13:10:04.550Z,1.80
2018-08-13T13:11:04.539Z,1.60
2018-08-13T13:12:04.523Z,2.00
2018-08-13T13:13:04.513Z,1.60
2018-08-13T13:14:04.508Z,1.70
2018-08-13T13:15:04.486Z,1.50
2018-08-13T13:16:04.478Z,1.60
2018-08-13T13:17:04.460Z,1.60
2018-08-13T13:18:04.451Z,1.70